createdAt,value
2022-10-26T00:00:52.359Z,44.62
2022-10-26T00:03:19.603Z,44.67
2022-10-26T00:05:46.657Z,44.54
2022-10-26T00:08:13.487Z,44.52
2022-10-26T00:10:40.604Z,44.67
2022-10-26T00:13:12.315Z,44.60
2022-10-26T00:15:42.788Z,44.66
2022-10-26T00:18:10.168Z,44.77
2022-10-26T00:20:36.874Z,44.67
2022-10-26T00:23:03.567Z,44.63
2022-10-26T00:25:30.141Z,44.64
2022-10-26T00:27:56.759Z,44.70
2022-10-26T00:30:23.535Z,44.76
2022-10-26T00:32:50.056Z,44.80
2022-10-26T00:35:23.055Z,44.78
2022-10-26T00:37:56.442Z,44.69
2022-10-26T00:40:27.971Z,44.69
2022-10-26T00:42:54.548Z,44.54
2022-10-26T00:45:25.022Z,44.70
2022-10-26T00:48:10.031Z,44.63
2022-10-26T00:50:42.690Z,44.63
2022-10-26T00:53:11.284Z,44.65
2022-10-26T00:55:42.484Z,44.57
2022-10-26T00:58:10.472Z,44.43
2022-10-26T01:00:37.763Z,44.83
2022-10-26T01:03:09.616Z,44.51
2022-10-26T01:05:40.099Z,44.58
2022-10-26T01:08:08.659Z,44.59
2022-10-26T01:10:37.833Z,44.65
2022-10-26T01:13:05.586Z,44.57
2022-10-26T01:16:21.767Z,44.52
2022-10-26T01:18:59.897Z,44.60
2022-10-26T01:21:54.250Z,44.61
2022-10-26T01:24:52.985Z,44.63
2022-10-26T01:27:30.664Z,44.53
2022-10-26T01:30:19.828Z,44.54
2022-10-26T01:33:02.596Z,44.55
2022-10-26T01:35:34.369Z,44.53
2022-10-26T01:38:11.049Z,44.50
2022-10-26T01:40:50.045Z,44.62
2022-10-26T01:43:18.420Z,44.49
2022-10-26T01:45:48.029Z,44.55
2022-10-26T01:48:19.063Z,44.58
2022-10-26T01:50:48.018Z,44.36
2022-10-26T01:53:15.973Z,44.49
2022-10-26T01:55:49.380Z,44.58
2022-10-26T01:58:43.275Z,44.55
2022-10-26T02:01:12.743Z,44.54
2022-10-26T02:03:39.331Z,44.48
2022-10-26T02:06:16.880Z,44.48
2022-10-26T02:08:58.208Z,44.49
2022-10-26T02:11:37.676Z,44.50
2022-10-26T02:14:18.347Z,44.48
2022-10-26T02:16:54.119Z,44.58
2022-10-26T02:19:33.112Z,44.53
2022-10-26T02:22:14.459Z,44.57
2022-10-26T02:24:42.577Z,44.57
2022-10-26T02:27:15.961Z,44.61
2022-10-26T02:29:44.352Z,44.47
2022-10-26T02:32:12.064Z,44.46
2022-10-26T02:34:44.334Z,44.51
2022-10-26T02:37:13.546Z,44.33
2022-10-26T02:39:41.789Z,44.49
2022-10-26T02:42:09.427Z,44.45
2022-10-26T02:44:47.344Z,44.49
2022-10-26T02:47:14.447Z,44.57
2022-10-26T02:49:41.211Z,44.37
2022-10-26T02:52:15.529Z,44.42
2022-10-26T02:54:50.017Z,44.49
2022-10-26T02:57:24.721Z,44.45
2022-10-26T02:59:52.795Z,44.41
2022-10-26T03:02:20.656Z,44.31
2022-10-26T03:04:50.101Z,44.43
2022-10-26T03:07:24.269Z,44.59
2022-10-26T03:09:51.688Z,44.55
2022-10-26T03:14:33.218Z,44.42
2022-10-26T03:16:59.972Z,44.47
2022-10-26T03:19:26.506Z,44.48
2022-10-26T03:24:07.364Z,44.51
2022-10-26T03:26:33.996Z,44.43
2022-10-26T03:29:00.517Z,44.54
2022-10-26T03:31:27.408Z,44.49
2022-10-26T03:33:53.890Z,44.54
2022-10-26T03:36:20.512Z,44.56
2022-10-26T03:38:47.028Z,44.57
2022-10-26T03:41:13.556Z,44.33
2022-10-26T03:43:40.087Z,44.49
2022-10-26T03:46:06.861Z,44.46
2022-10-26T03:48:33.344Z,44.68
2022-10-26T03:50:59.987Z,44.61
2022-10-26T03:53:27.101Z,44.66
2022-10-26T03:55:53.684Z,44.55
2022-10-26T03:58:20.292Z,44.48
2022-10-26T04:00:47.792Z,44.60
2022-10-26T04:03:14.285Z,44.63
2022-10-26T04:05:40.961Z,44.72
2022-10-26T04:08:08.863Z,44.74
2022-10-26T04:10:35.568Z,45.13
2022-10-26T04:13:02.149Z,45.21
2022-10-26T04:15:29.255Z,45.52
2022-10-26T04:18:00.424Z,45.61
2022-10-26T04:20:28.604Z,45.66
2022-10-26T04:23:04.249Z,45.75
2022-10-26T04:25:33.235Z,45.66
2022-10-26T04:28:03.261Z,45.71
2022-10-26T04:30:30.564Z,45.59
2022-10-26T04:32:57.083Z,45.69
2022-10-26T04:35:23.946Z,45.63
2022-10-26T04:37:50.525Z,45.70
2022-10-26T04:40:17.112Z,45.74
2022-10-26T04:42:48.104Z,45.71
2022-10-26T04:45:16.262Z,45.51
2022-10-26T04:47:43.069Z,45.66
2022-10-26T04:50:11.553Z,45.30
2022-10-26T04:52:38.345Z,44.93
2022-10-26T04:55:06.316Z,45.08
2022-10-26T04:57:33.736Z,45.03
2022-10-26T05:00:01.373Z,44.86
2022-10-26T05:02:29.201Z,44.95
2022-10-26T05:04:55.921Z,45.14
2022-10-26T05:07:22.566Z,45.26
2022-10-26T05:09:49.136Z,45.25
2022-10-26T05:12:15.766Z,45.43
2022-10-26T05:14:42.451Z,45.67
2022-10-26T05:17:08.937Z,45.48
2022-10-26T05:19:35.484Z,45.56
2022-10-26T05:22:02.041Z,45.23
2022-10-26T05:24:28.571Z,45.25
2022-10-26T05:26:55.246Z,45.45
2022-10-26T05:29:21.916Z,45.45
2022-10-26T05:31:48.396Z,45.55
2022-10-26T05:34:14.952Z,45.26
2022-10-26T05:36:41.910Z,45.20
2022-10-26T05:39:08.500Z,45.21
2022-10-26T05:41:34.990Z,45.21
2022-10-26T05:44:01.660Z,43.69
2022-10-26T05:46:28.176Z,42.12
2022-10-26T05:48:54.767Z,40.21
2022-10-26T05:51:21.364Z,38.76
2022-10-26T05:53:48.539Z,38.10
2022-10-26T05:56:20.970Z,37.71
2022-10-26T05:58:48.723Z,37.43
2022-10-26T06:01:46.340Z,37.20
2022-10-26T06:04:36.052Z,36.86
2022-10-26T06:07:03.291Z,36.95
2022-10-26T06:09:30.113Z,37.18
2022-10-26T06:11:56.996Z,37.38
2022-10-26T06:14:23.717Z,37.56
2022-10-26T06:16:50.207Z,38.15
2022-10-26T06:19:54.845Z,38.36
2022-10-26T06:22:32.793Z,38.86
2022-10-26T06:25:30.483Z,39.29
2022-10-26T06:28:19.510Z,39.34
2022-10-26T06:30:46.180Z,39.56
2022-10-26T06:33:24.896Z,39.90
2022-10-26T06:36:07.628Z,40.08
2022-10-26T06:38:36.231Z,41.62
2022-10-26T06:41:03.649Z,42.49
2022-10-26T06:43:34.202Z,43.48
2022-10-26T06:46:09.976Z,44.55
2022-10-26T06:48:59.189Z,44.87
2022-10-26T06:51:27.568Z,44.78
2022-10-26T06:54:06.901Z,44.43
2022-10-26T06:56:34.112Z,44.76
2022-10-26T06:59:08.212Z,44.87
2022-10-26T07:01:35.060Z,44.80
2022-10-26T07:04:01.708Z,44.88
2022-10-26T07:06:28.289Z,45.57
2022-10-26T07:08:54.960Z,45.60
2022-10-26T07:11:21.647Z,45.81
2022-10-26T07:13:49.987Z,46.05
2022-10-26T07:16:16.584Z,46.37
2022-10-26T07:18:43.094Z,46.40
2022-10-26T07:21:10.510Z,46.76
2022-10-26T07:23:37.039Z,46.61
2022-10-26T07:26:03.664Z,46.98
2022-10-26T07:28:30.393Z,47.36
2022-10-26T07:30:58.460Z,47.13
2022-10-26T07:33:24.974Z,47.06
2022-10-26T07:35:52.991Z,46.99
2022-10-26T07:38:19.872Z,46.86
2022-10-26T07:40:46.740Z,47.22
2022-10-26T07:43:13.392Z,46.92
2022-10-26T07:45:40.674Z,47.29
2022-10-26T07:48:07.586Z,47.09
2022-10-26T07:50:34.202Z,47.24
2022-10-26T07:53:00.760Z,47.30
2022-10-26T07:55:28.190Z,47.82
2022-10-26T07:57:55.867Z,47.86
2022-10-26T08:00:23.008Z,47.90
2022-10-26T08:02:49.527Z,47.93
2022-10-26T08:05:16.298Z,47.91
2022-10-26T08:07:44.630Z,47.62
2022-10-26T08:12:43.565Z,47.13
2022-10-26T08:15:10.524Z,47.42
2022-10-26T08:17:37.066Z,47.29
2022-10-26T08:20:03.959Z,47.08
2022-10-26T08:24:58.679Z,47.15
2022-10-26T08:27:25.584Z,46.74
2022-10-26T08:32:06.880Z,46.52
2022-10-26T08:34:33.538Z,46.53
2022-10-26T08:37:00.094Z,46.33
2022-10-26T08:39:28.541Z,46.53
2022-10-26T08:42:11.376Z,46.35
2022-10-26T08:44:47.829Z,46.29
2022-10-26T08:47:28.569Z,46.34
2022-10-26T08:50:03.204Z,46.38
2022-10-26T08:52:38.537Z,46.26
2022-10-26T08:55:11.833Z,46.19
2022-10-26T08:57:41.700Z,46.20
2022-10-26T09:00:22.629Z,46.19
2022-10-26T09:02:53.496Z,46.26
2022-10-26T09:05:42.112Z,46.25
2022-10-26T09:08:21.293Z,46.38
2022-10-26T09:11:06.830Z,46.48
2022-10-26T09:14:04.083Z,46.34
2022-10-26T09:16:59.636Z,46.20
2022-10-26T09:20:07.893Z,46.12
2022-10-26T09:22:57.954Z,46.22
2022-10-26T09:25:29.617Z,46.21
2022-10-26T09:28:01.550Z,46.18
2022-10-26T09:30:30.238Z,46.12
2022-10-26T09:33:02.429Z,46.22
2022-10-26T09:36:13.231Z,45.97
2022-10-26T09:39:01.299Z,45.94
2022-10-26T09:41:45.392Z,45.89
2022-10-26T09:44:20.430Z,45.69
2022-10-26T09:47:36.797Z,45.58
2022-10-26T09:50:20.265Z,45.40
2022-10-26T09:52:47.464Z,45.57
2022-10-26T09:55:14.983Z,45.69
2022-10-26T09:57:45.592Z,45.65
2022-10-26T10:00:17.621Z,45.50
2022-10-26T10:02:47.383Z,45.63
2022-10-26T10:05:50.382Z,45.45
2022-10-26T10:08:22.833Z,45.52
2022-10-26T10:11:13.794Z,45.43
2022-10-26T10:13:43.274Z,45.53
2022-10-26T10:16:21.987Z,45.48
2022-10-26T10:19:00.342Z,45.48
2022-10-26T10:21:34.909Z,45.43
2022-10-26T10:24:01.671Z,45.44
2022-10-26T10:26:28.285Z,45.44
2022-10-26T10:29:02.566Z,45.21
2022-10-26T10:31:33.716Z,45.38
2022-10-26T10:34:00.513Z,45.25
2022-10-26T10:36:30.136Z,45.17
2022-10-26T10:38:56.857Z,45.15
2022-10-26T10:41:32.474Z,45.15
2022-10-26T10:44:29.807Z,45.29
2022-10-26T10:47:06.789Z,45.34
2022-10-26T10:49:34.156Z,45.34
2022-10-26T10:52:00.708Z,45.50
2022-10-26T10:54:34.494Z,45.50
2022-10-26T10:57:01.003Z,45.32
2022-10-26T10:59:40.192Z,45.38
2022-10-26T11:02:09.883Z,45.14
2022-10-26T11:05:13.801Z,45.07
2022-10-26T11:08:03.381Z,44.87
2022-10-26T11:10:38.344Z,44.72
2022-10-26T11:13:17.588Z,44.58
2022-10-26T11:15:48.645Z,44.45
2022-10-26T11:18:48.892Z,44.54
2022-10-26T11:21:31.085Z,44.30
2022-10-26T11:24:10.859Z,44.29
2022-10-26T11:26:46.215Z,44.14
2022-10-26T11:29:25.568Z,44.24
2022-10-26T11:32:01.495Z,44.23
2022-10-26T11:34:54.336Z,44.05
2022-10-26T11:37:27.898Z,44.03
2022-10-26T11:40:23.131Z,44.03
2022-10-26T11:43:01.828Z,43.88
2022-10-26T11:45:32.801Z,43.83
2022-10-26T11:48:31.851Z,43.79
2022-10-26T11:51:00.035Z,43.96
2022-10-26T11:53:34.117Z,43.89
2022-10-26T11:56:03.571Z,43.90
2022-10-26T11:58:32.499Z,43.78
2022-10-26T12:01:09.653Z,43.67
2022-10-26T12:03:50.976Z,44.01
2022-10-26T12:06:24.893Z,44.38
2022-10-26T12:09:02.305Z,44.34
2022-10-26T12:11:31.753Z,44.43
2022-10-26T12:14:24.367Z,44.48
2022-10-26T12:16:57.039Z,44.71
2022-10-26T12:19:46.313Z,44.55
2022-10-26T12:22:17.237Z,44.59
2022-10-26T12:24:45.559Z,44.54
2022-10-26T12:27:49.205Z,44.53
2022-10-26T12:30:18.784Z,44.62
2022-10-26T12:32:45.332Z,44.75
2022-10-26T12:35:35.121Z,44.65
2022-10-26T12:38:23.666Z,44.77
2022-10-26T12:41:05.300Z,44.59
2022-10-26T12:43:31.962Z,44.67
2022-10-26T12:46:13.677Z,44.66
2022-10-26T12:48:44.552Z,44.60
2022-10-26T12:51:24.697Z,44.74
2022-10-26T12:54:33.387Z,44.77
2022-10-26T12:57:05.730Z,44.50
2022-10-26T12:59:52.936Z,44.61
2022-10-26T13:02:19.705Z,44.59
2022-10-26T13:05:07.821Z,44.51
2022-10-26T13:07:42.614Z,44.44
2022-10-26T13:10:12.161Z,44.56
2022-10-26T13:12:49.238Z,44.48
2022-10-26T13:15:53.253Z,44.42
2022-10-26T13:18:21.954Z,44.63
2022-10-26T13:21:13.686Z,44.73
2022-10-26T13:24:14.056Z,44.71
2022-10-26T13:27:05.322Z,44.76
2022-10-26T13:29:33.366Z,45.11
2022-10-26T13:32:02.868Z,45.22
2022-10-26T13:34:31.889Z,45.25
2022-10-26T13:37:10.283Z,45.73
2022-10-26T13:39:41.490Z,45.83
2022-10-26T13:42:16.372Z,45.92
2022-10-26T13:44:46.169Z,46.00
2022-10-26T13:47:24.018Z,46.04
2022-10-26T13:49:54.651Z,46.37
2022-10-26T13:52:40.045Z,46.61
2022-10-26T13:55:21.634Z,46.74
2022-10-26T13:58:18.553Z,46.79
2022-10-26T14:01:13.182Z,46.89
2022-10-26T14:03:40.968Z,46.90
2022-10-26T14:06:35.968Z,47.08
2022-10-26T14:09:06.631Z,46.45
2022-10-26T14:11:44.441Z,45.30
2022-10-26T14:14:19.804Z,44.71
2022-10-26T14:16:47.548Z,44.62
2022-10-26T14:19:29.041Z,44.26
2022-10-26T14:21:57.572Z,44.35
2022-10-26T14:24:45.564Z,44.24
2022-10-26T14:27:18.237Z,44.11
2022-10-26T14:29:49.976Z,44.13
2022-10-26T14:32:32.029Z,43.93
2022-10-26T14:34:58.613Z,44.10
2022-10-26T14:37:43.190Z,43.81
2022-10-26T14:40:18.453Z,43.87
2022-10-26T14:42:50.776Z,43.84
2022-10-26T14:45:48.083Z,43.71
2022-10-26T14:48:35.665Z,43.75
2022-10-26T14:51:03.905Z,43.60
2022-10-26T14:53:36.928Z,43.49
2022-10-26T14:56:05.299Z,43.41
2022-10-26T14:58:33.947Z,43.41
2022-10-26T15:01:22.263Z,43.54
2022-10-26T15:03:58.115Z,43.36
2022-10-26T15:06:28.490Z,43.57
2022-10-26T15:09:00.765Z,43.53
2022-10-26T15:11:28.752Z,42.80
2022-10-26T15:13:57.316Z,42.58
2022-10-26T15:16:29.834Z,42.80
2022-10-26T15:19:11.564Z,42.78
2022-10-26T15:21:46.289Z,42.94
2022-10-26T15:24:32.112Z,43.15
2022-10-26T15:27:02.023Z,43.21
2022-10-26T15:29:43.180Z,43.10
2022-10-26T15:32:28.777Z,42.89
2022-10-26T15:35:18.146Z,43.03
2022-10-26T15:37:48.543Z,43.10
2022-10-26T15:40:15.698Z,43.09
2022-10-26T15:42:45.186Z,43.00
2022-10-26T15:45:20.370Z,43.15
2022-10-26T15:47:51.706Z,42.97
2022-10-26T15:50:22.739Z,43.01
2022-10-26T15:52:50.267Z,42.88
2022-10-26T15:55:17.613Z,43.07
2022-10-26T15:57:44.527Z,42.94
2022-10-26T16:00:15.853Z,42.78
2022-10-26T16:02:44.261Z,43.00
2022-10-26T16:05:16.195Z,43.05
2022-10-26T16:07:45.312Z,43.00
2022-10-26T16:10:24.891Z,43.00
2022-10-26T16:12:52.543Z,43.09
2022-10-26T16:15:22.373Z,43.16
2022-10-26T16:17:49.916Z,43.04
2022-10-26T16:20:27.717Z,43.14
2022-10-26T16:22:54.627Z,43.23
2022-10-26T16:25:24.176Z,43.24
2022-10-26T16:27:51.631Z,43.31
2022-10-26T16:30:19.827Z,43.30
2022-10-26T16:32:47.301Z,42.92
2022-10-26T16:35:15.651Z,41.92
2022-10-26T16:37:42.499Z,42.09
2022-10-26T16:40:09.688Z,42.50
2022-10-26T16:42:36.455Z,42.78
2022-10-26T16:45:03.581Z,42.99
2022-10-26T16:47:35.506Z,43.16
2022-10-26T16:50:03.824Z,43.78
2022-10-26T16:52:30.530Z,44.08
2022-10-26T16:54:57.079Z,44.31
2022-10-26T16:57:24.039Z,44.55
2022-10-26T16:59:50.736Z,44.87
2022-10-26T17:02:17.859Z,44.96
2022-10-26T17:04:44.612Z,45.21
2022-10-26T17:07:11.204Z,45.21
2022-10-26T17:09:37.967Z,45.18
2022-10-26T17:12:05.269Z,45.55
2022-10-26T17:14:32.638Z,45.46
2022-10-26T17:16:59.164Z,45.34
2022-10-26T17:19:25.855Z,45.22
2022-10-26T17:21:52.353Z,45.36
2022-10-26T17:24:18.971Z,45.30
2022-10-26T17:26:45.593Z,45.43
2022-10-26T17:29:15.627Z,45.22
2022-10-26T17:34:13.331Z,45.11
2022-10-26T17:36:40.170Z,45.27
2022-10-26T17:39:06.739Z,45.50
2022-10-26T17:41:33.334Z,46.00
2022-10-26T17:43:59.823Z,46.55
2022-10-26T17:46:26.956Z,46.62
2022-10-26T17:48:58.729Z,46.36
2022-10-26T17:51:26.973Z,46.36
2022-10-26T17:53:54.361Z,46.04
2022-10-26T17:56:25.886Z,45.83
2022-10-26T17:58:57.965Z,45.89
2022-10-26T18:01:24.988Z,45.68
2022-10-26T18:03:52.357Z,45.56
2022-10-26T18:06:19.997Z,45.64
2022-10-26T18:08:47.068Z,45.58
2022-10-26T18:11:19.118Z,45.80
2022-10-26T18:13:48.282Z,45.73
2022-10-26T18:16:22.258Z,46.30
2022-10-26T18:18:50.273Z,46.47
2022-10-26T18:21:19.385Z,46.73
2022-10-26T18:23:46.727Z,46.31
2022-10-26T18:26:17.397Z,46.29
2022-10-26T18:28:44.991Z,46.26
2022-10-26T18:33:41.289Z,46.08
2022-10-26T18:36:12.783Z,46.09
2022-10-26T18:38:40.451Z,46.35
2022-10-26T18:41:10.274Z,46.15
2022-10-26T18:43:41.610Z,46.39
2022-10-26T18:46:11.457Z,46.33
2022-10-26T18:48:38.773Z,46.60
2022-10-26T18:51:10.817Z,46.85
2022-10-26T18:53:37.820Z,47.04
2022-10-26T18:56:10.166Z,47.10
2022-10-26T18:58:39.619Z,47.23
2022-10-26T19:01:17.852Z,46.76
2022-10-26T19:03:45.802Z,46.63
2022-10-26T19:06:18.052Z,46.52
2022-10-26T19:11:02.888Z,46.01
2022-10-26T19:13:29.480Z,45.94
2022-10-26T19:16:07.219Z,45.80
2022-10-26T19:18:39.417Z,45.87
2022-10-26T19:21:28.175Z,45.71
2022-10-26T19:23:57.514Z,45.81
2022-10-26T19:26:33.411Z,45.87
2022-10-26T19:29:03.621Z,45.77
2022-10-26T19:33:59.777Z,45.71
2022-10-26T19:36:27.278Z,45.59
2022-10-26T19:38:54.674Z,45.58
2022-10-26T19:41:23.414Z,45.52
2022-10-26T19:43:50.403Z,45.49
2022-10-26T19:46:21.035Z,45.54
2022-10-26T19:48:55.119Z,45.35
2022-10-26T19:51:22.722Z,45.27
2022-10-26T19:53:49.566Z,45.33
2022-10-26T19:56:16.863Z,45.26
2022-10-26T19:58:44.478Z,45.09
2022-10-26T20:01:12.923Z,45.27
2022-10-26T20:03:39.641Z,45.03
2022-10-26T20:06:11.195Z,45.28
2022-10-26T20:08:40.353Z,45.08
2022-10-26T20:11:10.293Z,45.15
2022-10-26T20:13:40.661Z,45.10
2022-10-26T20:16:07.990Z,45.09
2022-10-26T20:18:34.926Z,45.17
2022-10-26T20:21:01.572Z,45.08
2022-10-26T20:23:28.198Z,44.91
2022-10-26T20:25:55.597Z,44.95
2022-10-26T20:28:23.780Z,45.03
2022-10-26T20:30:50.342Z,44.91
2022-10-26T20:33:16.952Z,45.08
2022-10-26T20:35:43.590Z,44.96
2022-10-26T20:38:19.524Z,44.91
2022-10-26T20:40:59.392Z,44.91
2022-10-26T20:43:27.519Z,44.91
2022-10-26T20:45:54.671Z,45.01
2022-10-26T20:48:22.940Z,45.09
2022-10-26T20:50:55.757Z,45.52
2022-10-26T20:53:39.869Z,45.76
2022-10-26T20:56:10.629Z,46.01
2022-10-26T20:58:58.334Z,45.94
2022-10-26T21:01:29.175Z,45.97
2022-10-26T21:03:58.245Z,46.16
2022-10-26T21:06:25.733Z,45.99
2022-10-26T21:08:53.939Z,45.95
2022-10-26T21:11:22.403Z,46.03
2022-10-26T21:13:49.823Z,45.90
2022-10-26T21:16:17.279Z,45.92
2022-10-26T21:18:44.022Z,45.96
2022-10-26T21:21:10.698Z,45.92
2022-10-26T21:23:40.018Z,46.03
2022-10-26T21:26:07.778Z,46.09
2022-10-26T21:28:41.378Z,46.08
2022-10-26T21:31:10.481Z,46.02
2022-10-26T21:33:37.237Z,45.93
2022-10-26T21:36:06.023Z,45.79
2022-10-26T21:38:33.676Z,45.73
2022-10-26T21:41:18.591Z,45.78
2022-10-26T21:43:48.208Z,45.82
2022-10-26T21:46:16.107Z,45.73
2022-10-26T21:48:42.836Z,45.86
2022-10-26T21:51:17.855Z,45.66
2022-10-26T21:53:44.883Z,45.54
2022-10-26T21:56:14.405Z,45.89
2022-10-26T21:58:41.092Z,45.92
2022-10-26T22:01:08.729Z,46.07
2022-10-26T22:03:36.354Z,46.20
2022-10-26T22:06:03.592Z,46.45
2022-10-26T22:08:30.762Z,46.24
2022-10-26T22:10:58.209Z,46.41
2022-10-26T22:13:25.468Z,46.39
2022-10-26T22:16:06.458Z,46.46
2022-10-26T22:18:42.723Z,46.48
2022-10-26T22:21:10.217Z,46.51
2022-10-26T22:23:38.905Z,46.42
2022-10-26T22:26:17.144Z,46.24
2022-10-26T22:28:45.193Z,46.32
2022-10-26T22:31:23.221Z,46.37
2022-10-26T22:33:54.779Z,46.29
2022-10-26T22:36:22.444Z,46.00
2022-10-26T22:38:50.306Z,46.07
2022-10-26T22:41:18.162Z,46.08
2022-10-26T22:43:44.783Z,46.16
2022-10-26T22:46:14.334Z,45.76
2022-10-26T22:48:41.400Z,45.93
2022-10-26T22:51:13.877Z,45.84
2022-10-26T22:53:40.823Z,45.65
2022-10-26T22:56:09.182Z,45.57
2022-10-26T22:58:36.937Z,45.49
2022-10-26T23:01:11.046Z,45.75
2022-10-26T23:03:38.111Z,45.70
2022-10-26T23:06:08.286Z,45.28
2022-10-26T23:08:35.233Z,45.46
2022-10-26T23:11:04.373Z,45.41
2022-10-26T23:13:31.246Z,45.29
2022-10-26T23:16:14.685Z,45.33
2022-10-26T23:18:41.299Z,45.39
2022-10-26T23:21:09.808Z,45.30
2022-10-26T23:23:37.070Z,45.23
2022-10-26T23:26:09.233Z,45.22
2022-10-26T23:28:36.725Z,45.34
2022-10-26T23:31:03.447Z,45.21
2022-10-26T23:33:30.539Z,45.06
2022-10-26T23:35:57.460Z,45.09
2022-10-26T23:38:25.186Z,44.95
2022-10-26T23:40:56.755Z,45.10
2022-10-26T23:43:24.211Z,45.07
2022-10-26T23:45:50.960Z,44.99
2022-10-26T23:48:19.166Z,45.06
2022-10-26T23:50:48.643Z,44.89
2022-10-26T23:53:17.891Z,44.96
2022-10-26T23:55:45.268Z,44.79
2022-10-26T23:58:12.142Z,44.68
